sensor_id;sensor_type;location;lat;lon;timestamp;P1;durP1;ratioP1;P2;durP2;ratioP2
5491;SDS011;2768;53.540;10.224;2023-10-09T00:01:57;3.67;;;2.00;;
5491;SDS011;2768;53.540;10.224;2023-10-09T00:07:50;2.83;;;2.03;;
5491;SDS011;2768;53.540;10.224;2023-10-09T00:13:47;5.00;;;2.13;;
5491;SDS011;2768;53.540;10.224;2023-10-09T00:19:50;5.10;;;1.87;;
5491;SDS011;2768;53.540;10.224;2023-10-09T00:25:49;2.47;;;1.97;;
5491;SDS011;2768;53.540;10.224;2023-10-09T00:32:02;2.53;;;1.40;;
5491;SDS011;2768;53.540;10.224;2023-10-09T00:38:06;4.43;;;2.00;;
5491;SDS011;2768;53.540;10.224;2023-10-09T00:44:09;3.07;;;1.73;;
5491;SDS011;2768;53.540;10.224;2023-10-09T00:50:04;4.03;;;1.90;;
5491;SDS011;2768;53.540;10.224;2023-10-09T00:56:04;2.97;;;1.70;;
5491;SDS011;2768;53.540;10.224;2023-10-09T01:02:10;2.10;;;1.83;;
5491;SDS011;2768;53.540;10.224;2023-10-09T01:08:03;1.93;;;1.80;;
5491;SDS011;2768;53.540;10.224;2023-10-09T01:14:09;1.87;;;1.47;;
5491;SDS011;2768;53.540;10.224;2023-10-09T01:20:05;3.60;;;2.53;;
5491;SDS011;2768;53.540;10.224;2023-10-09T01:26:08;3.27;;;1.70;;
5491;SDS011;2768;53.540;10.224;2023-10-09T01:32:02;4.37;;;2.07;;
5491;SDS011;2768;53.540;10.224;2023-10-09T01:38:19;3.63;;;1.70;;
5491;SDS011;2768;53.540;10.224;2023-10-09T01:44:23;5.80;;;2.10;;
5491;SDS011;2768;53.540;10.224;2023-10-09T01:50:22;2.70;;;1.80;;
5491;SDS011;2768;53.540;10.224;2023-10-09T01:56:23;1.83;;;1.67;;
5491;SDS011;2768;53.540;10.224;2023-10-09T02:02:18;3.37;;;1.80;;
5491;SDS011;2768;53.540;10.224;2023-10-09T02:08:18;2.30;;;1.83;;
5491;SDS011;2768;53.540;10.224;2023-10-09T02:14:13;4.20;;;1.87;;
5491;SDS011;2768;53.540;10.224;2023-10-09T02:20:13;2.00;;;1.80;;
5491;SDS011;2768;53.540;10.224;2023-10-09T02:26:20;3.40;;;2.23;;
5491;SDS011;2768;53.540;10.224;2023-10-09T02:32:18;3.73;;;2.07;;
5491;SDS011;2768;53.540;10.224;2023-10-09T02:38:18;3.77;;;1.50;;
5491;SDS011;2768;53.540;10.224;2023-10-09T02:44:14;2.17;;;1.70;;
5491;SDS011;2768;53.540;10.224;2023-10-09T02:50:08;2.40;;;1.77;;
5491;SDS011;2768;53.540;10.224;2023-10-09T02:56:05;3.83;;;2.00;;
5491;SDS011;2768;53.540;10.224;2023-10-09T03:02:04;2.67;;;1.87;;
5491;SDS011;2768;53.540;10.224;2023-10-09T03:07:58;5.33;;;1.93;;
5491;SDS011;2768;53.540;10.224;2023-10-09T03:13:55;1.80;;;1.40;;
5491;SDS011;2768;53.540;10.224;2023-10-09T03:19:49;2.40;;;1.60;;
5491;SDS011;2768;53.540;10.224;2023-10-09T03:25:42;2.30;;;1.50;;
5491;SDS011;2768;53.540;10.224;2023-10-09T03:31:38;1.70;;;1.50;;
5491;SDS011;2768;53.540;10.224;2023-10-09T03:37:34;2.27;;;1.57;;
5491;SDS011;2768;53.540;10.224;2023-10-09T03:43:28;2.33;;;1.70;;
5491;SDS011;2768;53.540;10.224;2023-10-09T03:49:25;2.90;;;1.63;;
5491;SDS011;2768;53.540;10.224;2023-10-09T03:55:21;3.77;;;2.07;;
5491;SDS011;2768;53.540;10.224;2023-10-09T04:01:20;3.40;;;1.97;;
5491;SDS011;2768;53.540;10.224;2023-10-09T04:07:18;4.10;;;2.23;;
5491;SDS011;2768;53.540;10.224;2023-10-09T04:13:13;3.57;;;1.93;;
5491;SDS011;2768;53.540;10.224;2023-10-09T04:19:10;1.70;;;1.60;;
5491;SDS011;2768;53.540;10.224;2023-10-09T04:25:05;2.00;;;1.40;;
5491;SDS011;2768;53.540;10.224;2023-10-09T04:31:06;3.67;;;1.90;;
5491;SDS011;2768;53.540;10.224;2023-10-09T04:37:00;2.40;;;1.50;;
5491;SDS011;2768;53.540;10.224;2023-10-09T04:43:12;4.43;;;2.03;;
5491;SDS011;2768;53.540;10.224;2023-10-09T04:49:11;5.47;;;1.80;;
5491;SDS011;2768;53.540;10.224;2023-10-09T04:55:19;5.57;;;1.70;;
5491;SDS011;2768;53.540;10.224;2023-10-09T05:01:17;5.67;;;1.50;;
5491;SDS011;2768;53.540;10.224;2023-10-09T05:07:28;3.03;;;1.43;;
5491;SDS011;2768;53.540;10.224;2023-10-09T05:13:46;6.27;;;1.57;;
5491;SDS011;2768;53.540;10.224;2023-10-09T05:19:50;2.50;;;2.10;;
5491;SDS011;2768;53.540;10.224;2023-10-09T05:26:07;2.47;;;2.03;;
5491;SDS011;2768;53.540;10.224;2023-10-09T05:32:21;4.33;;;1.97;;
5491;SDS011;2768;53.540;10.224;2023-10-09T05:38:22;4.13;;;2.13;;
5491;SDS011;2768;53.540;10.224;2023-10-09T05:44:16;2.40;;;1.67;;
5491;SDS011;2768;53.540;10.224;2023-10-09T05:50:27;3.40;;;1.93;;
5491;SDS011;2768;53.540;10.224;2023-10-09T05:56:30;3.20;;;1.90;;
5491;SDS011;2768;53.540;10.224;2023-10-09T06:02:41;3.83;;;2.60;;
5491;SDS011;2768;53.540;10.224;2023-10-09T06:08:53;2.20;;;1.70;;
5491;SDS011;2768;53.540;10.224;2023-10-09T06:15:02;3.03;;;1.83;;
5491;SDS011;2768;53.540;10.224;2023-10-09T06:21:22;2.83;;;1.77;;
5491;SDS011;2768;53.540;10.224;2023-10-09T06:27:30;1.70;;;1.60;;
5491;SDS011;2768;53.540;10.224;2023-10-09T06:33:49;2.90;;;2.20;;
5491;SDS011;2768;53.540;10.224;2023-10-09T06:40:08;5.80;;;2.13;;
5491;SDS011;2768;53.540;10.224;2023-10-09T06:46:23;2.87;;;1.87;;
5491;SDS011;2768;53.540;10.224;2023-10-09T06:52:43;2.30;;;2.00;;
5491;SDS011;2768;53.540;10.224;2023-10-09T06:59:09;2.47;;;1.90;;
5491;SDS011;2768;53.540;10.224;2023-10-09T07:05:07;2.83;;;1.93;;
5491;SDS011;2768;53.540;10.224;2023-10-09T07:11:10;5.00;;;3.50;;
5491;SDS011;2768;53.540;10.224;2023-10-09T07:17:49;4.57;;;2.77;;
5491;SDS011;2768;53.540;10.224;2023-10-09T07:23:44;4.33;;;2.33;;
5491;SDS011;2768;53.540;10.224;2023-10-09T07:29:43;2.60;;;2.30;;
5491;SDS011;2768;53.540;10.224;2023-10-09T07:35:40;5.40;;;2.50;;
5491;SDS011;2768;53.540;10.224;2023-10-09T07:41:39;3.50;;;2.70;;
5491;SDS011;2768;53.540;10.224;2023-10-09T07:47:38;7.57;;;5.50;;
5491;SDS011;2768;53.540;10.224;2023-10-09T07:53:54;6.27;;;3.97;;
5491;SDS011;2768;53.540;10.224;2023-10-09T07:59:58;3.60;;;3.23;;
5491;SDS011;2768;53.540;10.224;2023-10-09T08:06:05;3.17;;;2.90;;
5491;SDS011;2768;53.540;10.224;2023-10-09T08:12:16;3.03;;;2.73;;
5491;SDS011;2768;53.540;10.224;2023-10-09T08:18:27;3.10;;;2.80;;
5491;SDS011;2768;53.540;10.224;2023-10-09T08:24:22;3.27;;;3.00;;
5491;SDS011;2768;53.540;10.224;2023-10-09T08:30:32;4.03;;;3.30;;
5491;SDS011;2768;53.540;10.224;2023-10-09T08:36:49;6.07;;;4.73;;
5491;SDS011;2768;53.540;10.224;2023-10-09T08:42:46;6.33;;;4.53;;
5491;SDS011;2768;53.540;10.224;2023-10-09T08:48:45;5.40;;;3.33;;
5491;SDS011;2768;53.540;10.224;2023-10-09T08:54:39;3.50;;;3.20;;
5491;SDS011;2768;53.540;10.224;2023-10-09T09:00:34;3.70;;;3.40;;
5491;SDS011;2768;53.540;10.224;2023-10-09T09:06:27;4.47;;;3.60;;
5491;SDS011;2768;53.540;10.224;2023-10-09T09:12:30;3.60;;;3.30;;
5491;SDS011;2768;53.540;10.224;2023-10-09T09:18:31;3.27;;;3.07;;
5491;SDS011;2768;53.540;10.224;2023-10-09T09:24:36;4.13;;;3.13;;
5491;SDS011;2768;53.540;10.224;2023-10-09T09:30:30;2.73;;;2.53;;
5491;SDS011;2768;53.540;10.224;2023-10-09T09:36:26;3.00;;;2.80;;
5491;SDS011;2768;53.540;10.224;2023-10-09T09:42:22;3.00;;;2.70;;
5491;SDS011;2768;53.540;10.224;2023-10-09T09:48:19;2.90;;;2.70;;
5491;SDS011;2768;53.540;10.224;2023-10-09T09:54:17;2.90;;;2.57;;
5491;SDS011;2768;53.540;10.224;2023-10-09T10:00:18;2.33;;;2.23;;
5491;SDS011;2768;53.540;10.224;2023-10-09T10:06:21;2.40;;;2.20;;
5491;SDS011;2768;53.540;10.224;2023-10-09T10:12:48;2.53;;;2.33;;
5491;SDS011;2768;53.540;10.224;2023-10-09T10:18:52;2.30;;;2.10;;
5491;SDS011;2768;53.540;10.224;2023-10-09T10:24:52;2.33;;;2.13;;
5491;SDS011;2768;53.540;10.224;2023-10-09T10:30:47;2.10;;;2.00;;
5491;SDS011;2768;53.540;10.224;2023-10-09T10:36:44;2.13;;;2.00;;
5491;SDS011;2768;53.540;10.224;2023-10-09T10:42:46;2.10;;;2.00;;
5491;SDS011;2768;53.540;10.224;2023-10-09T10:49:04;2.13;;;1.60;;
5491;SDS011;2768;53.540;10.224;2023-10-09T10:55:11;2.03;;;1.93;;
5491;SDS011;2768;53.540;10.224;2023-10-09T11:01:37;1.63;;;1.53;;
5491;SDS011;2768;53.540;10.224;2023-10-09T11:07:46;2.00;;;1.90;;
5491;SDS011;2768;53.540;10.224;2023-10-09T11:13:44;1.77;;;1.67;;
5491;SDS011;2768;53.540;10.224;2023-10-09T11:19:47;1.40;;;1.40;;
5491;SDS011;2768;53.540;10.224;2023-10-09T11:25:46;3.17;;;1.57;;
5491;SDS011;2768;53.540;10.224;2023-10-09T11:32:00;1.10;;;1.10;;
5491;SDS011;2768;53.540;10.224;2023-10-09T11:37:56;1.17;;;1.07;;
5491;SDS011;2768;53.540;10.224;2023-10-09T11:43:52;0.80;;;0.80;;
5491;SDS011;2768;53.540;10.224;2023-10-09T11:49:49;1.40;;;1.40;;
5491;SDS011;2768;53.540;10.224;2023-10-09T11:56:04;0.90;;;0.90;;
5491;SDS011;2768;53.540;10.224;2023-10-09T12:02:05;0.90;;;0.90;;
5491;SDS011;2768;53.540;10.224;2023-10-09T12:08:03;0.90;;;0.90;;
5491;SDS011;2768;53.540;10.224;2023-10-09T12:14:00;1.30;;;1.30;;
5491;SDS011;2768;53.540;10.224;2023-10-09T12:19:55;1.10;;;1.00;;
5491;SDS011;2768;53.540;10.224;2023-10-09T12:25:51;1.00;;;1.00;;
5491;SDS011;2768;53.540;10.224;2023-10-09T12:31:48;0.70;;;0.70;;
5491;SDS011;2768;53.540;10.224;2023-10-09T12:37:51;1.10;;;1.00;;
5491;SDS011;2768;53.540;10.224;2023-10-09T12:43:46;1.27;;;1.17;;
5491;SDS011;2768;53.540;10.224;2023-10-09T12:49:39;1.13;;;1.13;;
5491;SDS011;2768;53.540;10.224;2023-10-09T12:55:35;1.40;;;1.30;;
5491;SDS011;2768;53.540;10.224;2023-10-09T13:01:32;1.17;;;1.17;;
5491;SDS011;2768;53.540;10.224;2023-10-09T13:07:35;2.27;;;2.10;;
5491;SDS011;2768;53.540;10.224;2023-10-09T13:13:29;2.27;;;2.07;;
5491;SDS011;2768;53.540;10.224;2023-10-09T13:19:37;1.33;;;1.23;;
5491;SDS011;2768;53.540;10.224;2023-10-09T13:25:30;1.63;;;1.43;;
5491;SDS011;2768;53.540;10.224;2023-10-09T13:31:32;1.10;;;1.10;;
5491;SDS011;2768;53.540;10.224;2023-10-09T13:37:26;1.23;;;1.20;;
5491;SDS011;2768;53.540;10.224;2023-10-09T13:43:22;1.37;;;0.87;;
5491;SDS011;2768;53.540;10.224;2023-10-09T13:49:19;0.80;;;0.80;;
5491;SDS011;2768;53.540;10.224;2023-10-09T13:55:14;1.03;;;1.00;;
5491;SDS011;2768;53.540;10.224;2023-10-09T14:01:08;1.10;;;1.10;;
5491;SDS011;2768;53.540;10.224;2023-10-09T14:07:02;1.40;;;1.30;;
5491;SDS011;2768;53.540;10.224;2023-10-09T14:12:58;1.60;;;1.50;;
5491;SDS011;2768;53.540;10.224;2023-10-09T14:18:51;1.43;;;1.33;;
5491;SDS011;2768;53.540;10.224;2023-10-09T14:24:47;0.97;;;0.97;;
5491;SDS011;2768;53.540;10.224;2023-10-09T14:30:46;1.43;;;1.33;;
5491;SDS011;2768;53.540;10.224;2023-10-09T14:36:48;1.60;;;1.50;;
5491;SDS011;2768;53.540;10.224;2023-10-09T14:42:42;2.00;;;1.90;;
5491;SDS011;2768;53.540;10.224;2023-10-09T14:48:37;4.33;;;1.93;;
5491;SDS011;2768;53.540;10.224;2023-10-09T14:54:30;1.63;;;1.53;;
5491;SDS011;2768;53.540;10.224;2023-10-09T15:00:24;2.20;;;2.10;;
5491;SDS011;2768;53.540;10.224;2023-10-09T15:06:18;1.87;;;1.77;;
5491;SDS011;2768;53.540;10.224;2023-10-09T15:12:11;2.33;;;2.23;;
5491;SDS011;2768;53.540;10.224;2023-10-09T15:18:06;1.80;;;1.70;;
5491;SDS011;2768;53.540;10.224;2023-10-09T15:24:00;2.17;;;2.07;;
5491;SDS011;2768;53.540;10.224;2023-10-09T15:29:54;2.03;;;1.93;;
5491;SDS011;2768;53.540;10.224;2023-10-09T15:35:48;2.80;;;2.20;;
5491;SDS011;2768;53.540;10.224;2023-10-09T15:41:42;2.40;;;2.23;;
5491;SDS011;2768;53.540;10.224;2023-10-09T15:47:36;3.50;;;3.27;;
5491;SDS011;2768;53.540;10.224;2023-10-09T15:53:33;4.20;;;3.90;;
5491;SDS011;2768;53.540;10.224;2023-10-09T15:59:30;3.40;;;3.20;;
5491;SDS011;2768;53.540;10.224;2023-10-09T16:05:24;3.70;;;3.40;;
5491;SDS011;2768;53.540;10.224;2023-10-09T16:11:20;4.40;;;4.00;;
5491;SDS011;2768;53.540;10.224;2023-10-09T16:17:15;5.30;;;4.80;;
5491;SDS011;2768;53.540;10.224;2023-10-09T16:23:08;5.20;;;4.70;;
5491;SDS011;2768;53.540;10.224;2023-10-09T16:29:06;5.40;;;4.90;;
5491;SDS011;2768;53.540;10.224;2023-10-09T16:35:00;5.50;;;5.10;;
5491;SDS011;2768;53.540;10.224;2023-10-09T16:40:54;6.47;;;5.97;;
5491;SDS011;2768;53.540;10.224;2023-10-09T16:46:52;6.67;;;6.17;;
5491;SDS011;2768;53.540;10.224;2023-10-09T16:52:50;6.77;;;6.27;;
5491;SDS011;2768;53.540;10.224;2023-10-09T16:58:43;6.63;;;6.13;;
5491;SDS011;2768;53.540;10.224;2023-10-09T17:04:38;6.80;;;6.20;;
5491;SDS011;2768;53.540;10.224;2023-10-09T17:10:35;8.30;;;7.47;;
5491;SDS011;2768;53.540;10.224;2023-10-09T17:16:30;6.53;;;6.03;;
5491;SDS011;2768;53.540;10.224;2023-10-09T17:22:25;6.87;;;6.27;;
5491;SDS011;2768;53.540;10.224;2023-10-09T17:28:18;9.07;;;8.17;;
5491;SDS011;2768;53.540;10.224;2023-10-09T17:34:13;7.57;;;6.80;;
5491;SDS011;2768;53.540;10.224;2023-10-09T17:40:11;8.57;;;7.80;;
5491;SDS011;2768;53.540;10.224;2023-10-09T17:46:09;6.90;;;6.30;;
5491;SDS011;2768;53.540;10.224;2023-10-09T17:52:03;6.50;;;5.90;;
5491;SDS011;2768;53.540;10.224;2023-10-09T17:58:04;6.07;;;5.53;;
5491;SDS011;2768;53.540;10.224;2023-10-09T18:03:58;7.13;;;5.57;;
5491;SDS011;2768;53.540;10.224;2023-10-09T18:09:54;5.67;;;5.17;;
5491;SDS011;2768;53.540;10.224;2023-10-09T18:15:50;5.60;;;4.90;;
5491;SDS011;2768;53.540;10.224;2023-10-09T18:21:53;3.97;;;3.60;;
5491;SDS011;2768;53.540;10.224;2023-10-09T18:27:46;3.70;;;2.50;;
5491;SDS011;2768;53.540;10.224;2023-10-09T18:33:45;2.90;;;2.30;;
5491;SDS011;2768;53.540;10.224;2023-10-09T18:39:38;2.10;;;1.53;;
5491;SDS011;2768;53.540;10.224;2023-10-09T18:45:32;3.77;;;2.70;;
5491;SDS011;2768;53.540;10.224;2023-10-09T18:51:28;6.83;;;1.87;;
5491;SDS011;2768;53.540;10.224;2023-10-09T18:57:22;4.10;;;2.47;;
5491;SDS011;2768;53.540;10.224;2023-10-09T19:03:15;2.90;;;2.47;;
5491;SDS011;2768;53.540;10.224;2023-10-09T19:09:10;5.97;;;3.50;;
5491;SDS011;2768;53.540;10.224;2023-10-09T19:15:12;5.27;;;3.57;;
5491;SDS011;2768;53.540;10.224;2023-10-09T19:21:06;6.03;;;3.80;;
5491;SDS011;2768;53.540;10.224;2023-10-09T19:27:04;5.70;;;4.33;;
5491;SDS011;2768;53.540;10.224;2023-10-09T19:32:57;6.30;;;3.90;;
5491;SDS011;2768;53.540;10.224;2023-10-09T19:38:51;4.47;;;3.20;;
5491;SDS011;2768;53.540;10.224;2023-10-09T19:44:46;4.20;;;3.30;;
5491;SDS011;2768;53.540;10.224;2023-10-09T19:50:40;4.43;;;2.80;;
5491;SDS011;2768;53.540;10.224;2023-10-09T19:56:33;3.00;;;2.13;;
5491;SDS011;2768;53.540;10.224;2023-10-09T20:02:30;4.33;;;3.50;;
5491;SDS011;2768;53.540;10.224;2023-10-09T20:08:26;4.30;;;3.40;;
5491;SDS011;2768;53.540;10.224;2023-10-09T20:14:20;4.30;;;3.90;;
5491;SDS011;2768;53.540;10.224;2023-10-09T20:20:15;5.97;;;4.60;;
5491;SDS011;2768;53.540;10.224;2023-10-09T20:26:14;7.00;;;5.40;;
5491;SDS011;2768;53.540;10.224;2023-10-09T20:32:08;8.60;;;5.83;;
5491;SDS011;2768;53.540;10.224;2023-10-09T20:38:07;11.83;;;7.90;;
5491;SDS011;2768;53.540;10.224;2023-10-09T20:44:01;6.70;;;5.83;;
5491;SDS011;2768;53.540;10.224;2023-10-09T20:49:56;8.70;;;4.73;;
5491;SDS011;2768;53.540;10.224;2023-10-09T20:55:55;9.80;;;5.23;;
5491;SDS011;2768;53.540;10.224;2023-10-09T21:01:48;9.10;;;5.40;;
5491;SDS011;2768;53.540;10.224;2023-10-09T21:07:43;8.83;;;5.60;;
5491;SDS011;2768;53.540;10.224;2023-10-09T21:13:38;9.03;;;6.90;;
5491;SDS011;2768;53.540;10.224;2023-10-09T21:19:32;7.60;;;6.73;;
5491;SDS011;2768;53.540;10.224;2023-10-09T21:25:26;12.57;;;6.53;;
5491;SDS011;2768;53.540;10.224;2023-10-09T21:31:21;9.50;;;7.10;;
5491;SDS011;2768;53.540;10.224;2023-10-09T21:37:16;10.47;;;6.97;;
5491;SDS011;2768;53.540;10.224;2023-10-09T21:43:10;10.20;;;6.60;;
5491;SDS011;2768;53.540;10.224;2023-10-09T21:49:07;14.87;;;7.33;;
5491;SDS011;2768;53.540;10.224;2023-10-09T21:55:00;11.00;;;7.43;;
5491;SDS011;2768;53.540;10.224;2023-10-09T22:00:54;10.70;;;7.83;;
5491;SDS011;2768;53.540;10.224;2023-10-09T22:06:49;11.60;;;8.73;;
5491;SDS011;2768;53.540;10.224;2023-10-09T22:12:42;9.30;;;7.73;;
5491;SDS011;2768;53.540;10.224;2023-10-09T22:18:36;9.43;;;7.67;;
5491;SDS011;2768;53.540;10.224;2023-10-09T22:24:33;9.37;;;7.53;;
5491;SDS011;2768;53.540;10.224;2023-10-09T22:30:27;20.93;;;9.50;;
5491;SDS011;2768;53.540;10.224;2023-10-09T22:36:25;16.83;;;8.17;;
5491;SDS011;2768;53.540;10.224;2023-10-09T22:42:40;14.97;;;10.00;;
5491;SDS011;2768;53.540;10.224;2023-10-09T22:48:34;12.83;;;9.10;;
5491;SDS011;2768;53.540;10.224;2023-10-09T22:54:33;16.83;;;8.63;;
5491;SDS011;2768;53.540;10.224;2023-10-09T23:00:29;15.70;;;9.20;;
5491;SDS011;2768;53.540;10.224;2023-10-09T23:06:28;20.20;;;9.37;;
5491;SDS011;2768;53.540;10.224;2023-10-09T23:12:25;12.47;;;9.20;;
5491;SDS011;2768;53.540;10.224;2023-10-09T23:18:27;12.60;;;9.70;;
5491;SDS011;2768;53.540;10.224;2023-10-09T23:24:24;14.77;;;10.80;;
5491;SDS011;2768;53.540;10.224;2023-10-09T23:30:19;16.53;;;11.37;;
5491;SDS011;2768;53.540;10.224;2023-10-09T23:36:20;17.60;;;10.70;;
5491;SDS011;2768;53.540;10.224;2023-10-09T23:42:18;14.57;;;11.10;;
5491;SDS011;2768;53.540;10.224;2023-10-09T23:48:18;15.00;;;10.23;;
5491;SDS011;2768;53.540;10.224;2023-10-09T23:54:17;18.13;;;11.33;;
